sensor_id;sensor_type;location;lat;lon;timestamp;P1;durP1;ratioP1;P2;durP2;ratioP2
7495;SDS011;3789;47.064;15.482;2022-08-18T00:01:24;5.45;;;4.88;;
7495;SDS011;3789;47.064;15.482;2022-08-18T00:03:59;5.10;;;4.38;;
7495;SDS011;3789;47.064;15.482;2022-08-18T00:06:39;7.40;;;4.97;;
7495;SDS011;3789;47.064;15.482;2022-08-18T00:09:09;5.82;;;5.22;;
7495;SDS011;3789;47.064;15.482;2022-08-18T00:11:40;5.68;;;5.13;;
7495;SDS011;3789;47.064;15.482;2022-08-18T00:14:21;8.88;;;5.63;;
7495;SDS011;3789;47.064;15.482;2022-08-18T00:16:49;6.55;;;5.60;;
7495;SDS011;3789;47.064;15.482;2022-08-18T00:19:18;6.25;;;5.63;;
7495;SDS011;3789;47.064;15.482;2022-08-18T00:22:08;6.55;;;5.75;;
7495;SDS011;3789;47.064;15.482;2022-08-18T00:24:45;6.18;;;5.32;;
7495;SDS011;3789;47.064;15.482;2022-08-18T00:27:17;6.55;;;5.10;;
7495;SDS011;3789;47.064;15.482;2022-08-18T00:29:57;6.68;;;6.05;;
7495;SDS011;3789;47.064;15.482;2022-08-18T00:32:32;8.48;;;5.20;;
7495;SDS011;3789;47.064;15.482;2022-08-18T00:35:45;5.82;;;5.32;;
7495;SDS011;3789;47.064;15.482;2022-08-18T00:38:17;7.18;;;5.13;;
7495;SDS011;3789;47.064;15.482;2022-08-18T00:40:50;5.20;;;4.80;;
7495;SDS011;3789;47.064;15.482;2022-08-18T00:43:41;4.95;;;4.50;;
7495;SDS011;3789;47.064;15.482;2022-08-18T00:46:22;5.22;;;4.75;;
7495;SDS011;3789;47.064;15.482;2022-08-18T00:48:59;5.88;;;4.63;;
7495;SDS011;3789;47.064;15.482;2022-08-18T00:51:42;6.70;;;4.72;;
7495;SDS011;3789;47.064;15.482;2022-08-18T00:54:24;8.93;;;4.97;;
7495;SDS011;3789;47.064;15.482;2022-08-18T00:57:19;4.93;;;4.53;;
7495;SDS011;3789;47.064;15.482;2022-08-18T00:59:52;5.93;;;5.13;;
7495;SDS011;3789;47.064;15.482;2022-08-18T01:02:32;5.32;;;4.60;;
7495;SDS011;3789;47.064;15.482;2022-08-18T01:05:10;5.50;;;4.95;;
7495;SDS011;3789;47.064;15.482;2022-08-18T01:10:16;5.20;;;4.70;;
7495;SDS011;3789;47.064;15.482;2022-08-18T01:12:49;5.80;;;5.30;;
7495;SDS011;3789;47.064;15.482;2022-08-18T01:15:25;5.50;;;4.65;;
7495;SDS011;3789;47.064;15.482;2022-08-18T01:18:02;4.97;;;4.57;;
7495;SDS011;3789;47.064;15.482;2022-08-18T01:20:59;7.65;;;4.82;;
7495;SDS011;3789;47.064;15.482;2022-08-18T01:24:04;7.43;;;4.70;;
7495;SDS011;3789;47.064;15.482;2022-08-18T01:26:49;4.63;;;4.22;;
7495;SDS011;3789;47.064;15.482;2022-08-18T01:29:18;5.72;;;5.15;;
7495;SDS011;3789;47.064;15.482;2022-08-18T01:31:52;5.30;;;4.88;;
7495;SDS011;3789;47.064;15.482;2022-08-18T01:34:26;5.82;;;4.90;;
7495;SDS011;3789;47.064;15.482;2022-08-18T01:36:57;5.40;;;4.90;;
7495;SDS011;3789;47.064;15.482;2022-08-18T01:39:30;5.55;;;5.05;;
7495;SDS011;3789;47.064;15.482;2022-08-18T01:42:20;5.15;;;4.63;;
7495;SDS011;3789;47.064;15.482;2022-08-18T01:44:53;5.32;;;4.82;;
7495;SDS011;3789;47.064;15.482;2022-08-18T01:47:22;6.80;;;5.18;;
7495;SDS011;3789;47.064;15.482;2022-08-18T01:50:15;4.90;;;4.50;;
7495;SDS011;3789;47.064;15.482;2022-08-18T01:52:44;5.45;;;4.95;;
7495;SDS011;3789;47.064;15.482;2022-08-18T01:55:15;6.15;;;5.05;;
7495;SDS011;3789;47.064;15.482;2022-08-18T01:57:48;5.55;;;4.95;;
7495;SDS011;3789;47.064;15.482;2022-08-18T02:00:17;5.10;;;4.70;;
7495;SDS011;3789;47.064;15.482;2022-08-18T02:02:47;5.47;;;4.97;;
7495;SDS011;3789;47.064;15.482;2022-08-18T02:05:36;5.47;;;4.97;;
7495;SDS011;3789;47.064;15.482;2022-08-18T02:08:13;5.40;;;4.90;;
7495;SDS011;3789;47.064;15.482;2022-08-18T02:10:44;8.18;;;5.40;;
7495;SDS011;3789;47.064;15.482;2022-08-18T02:13:13;5.40;;;4.93;;
7495;SDS011;3789;47.064;15.482;2022-08-18T02:15:45;6.57;;;5.22;;
7495;SDS011;3789;47.064;15.482;2022-08-18T02:18:14;4.95;;;4.47;;
7495;SDS011;3789;47.064;15.482;2022-08-18T02:21:09;6.95;;;4.97;;
7495;SDS011;3789;47.064;15.482;2022-08-18T02:23:44;6.32;;;5.70;;
7495;SDS011;3789;47.064;15.482;2022-08-18T02:26:22;6.10;;;5.50;;
7495;SDS011;3789;47.064;15.482;2022-08-18T02:28:53;6.28;;;5.60;;
7495;SDS011;3789;47.064;15.482;2022-08-18T02:31:23;6.03;;;5.43;;
7495;SDS011;3789;47.064;15.482;2022-08-18T02:33:53;7.28;;;5.55;;
7495;SDS011;3789;47.064;15.482;2022-08-18T02:36:25;6.68;;;6.10;;
7495;SDS011;3789;47.064;15.482;2022-08-18T02:38:55;7.30;;;5.88;;
7495;SDS011;3789;47.064;15.482;2022-08-18T02:41:27;6.63;;;6.03;;
7495;SDS011;3789;47.064;15.482;2022-08-18T02:43:57;7.50;;;6.30;;
7495;SDS011;3789;47.064;15.482;2022-08-18T02:46:27;6.70;;;6.00;;
7495;SDS011;3789;47.064;15.482;2022-08-18T02:48:58;6.72;;;5.82;;
7495;SDS011;3789;47.064;15.482;2022-08-18T02:51:29;6.97;;;6.10;;
7495;SDS011;3789;47.064;15.482;2022-08-18T02:54:05;6.32;;;5.75;;
7495;SDS011;3789;47.064;15.482;2022-08-18T02:56:38;7.97;;;6.20;;
7495;SDS011;3789;47.064;15.482;2022-08-18T02:59:10;7.28;;;6.00;;
7495;SDS011;3789;47.064;15.482;2022-08-18T03:01:42;6.95;;;6.20;;
7495;SDS011;3789;47.064;15.482;2022-08-18T03:04:22;7.13;;;6.43;;
7495;SDS011;3789;47.064;15.482;2022-08-18T03:06:58;7.28;;;6.53;;
7495;SDS011;3789;47.064;15.482;2022-08-18T03:09:28;7.35;;;6.60;;
7495;SDS011;3789;47.064;15.482;2022-08-18T03:11:59;6.65;;;5.97;;
7495;SDS011;3789;47.064;15.482;2022-08-18T03:14:40;6.88;;;6.18;;
7495;SDS011;3789;47.064;15.482;2022-08-18T03:17:10;7.63;;;6.65;;
7495;SDS011;3789;47.064;15.482;2022-08-18T03:19:43;6.53;;;5.80;;
7495;SDS011;3789;47.064;15.482;2022-08-18T03:22:18;8.73;;;6.95;;
7495;SDS011;3789;47.064;15.482;2022-08-18T03:24:57;7.20;;;6.45;;
7495;SDS011;3789;47.064;15.482;2022-08-18T03:27:25;9.00;;;6.97;;
7495;SDS011;3789;47.064;15.482;2022-08-18T03:29:54;7.57;;;6.88;;
7495;SDS011;3789;47.064;15.482;2022-08-18T03:32:24;7.43;;;6.43;;
7495;SDS011;3789;47.064;15.482;2022-08-18T03:34:54;10.13;;;6.95;;
7495;SDS011;3789;47.064;15.482;2022-08-18T03:37:23;7.47;;;6.68;;
7495;SDS011;3789;47.064;15.482;2022-08-18T03:39:53;8.10;;;7.07;;
7495;SDS011;3789;47.064;15.482;2022-08-18T03:42:23;8.15;;;7.35;;
7495;SDS011;3789;47.064;15.482;2022-08-18T03:44:54;7.80;;;6.55;;
7495;SDS011;3789;47.064;15.482;2022-08-18T03:47:23;7.93;;;7.13;;
7495;SDS011;3789;47.064;15.482;2022-08-18T03:49:50;7.95;;;7.15;;
7495;SDS011;3789;47.064;15.482;2022-08-18T03:52:28;8.75;;;7.22;;
7495;SDS011;3789;47.064;15.482;2022-08-18T03:54:57;11.52;;;7.90;;
7495;SDS011;3789;47.064;15.482;2022-08-18T03:57:29;8.23;;;7.32;;
7495;SDS011;3789;47.064;15.482;2022-08-18T04:00:05;11.57;;;7.38;;
7495;SDS011;3789;47.064;15.482;2022-08-18T04:02:38;8.45;;;7.63;;
7495;SDS011;3789;47.064;15.482;2022-08-18T04:05:10;8.55;;;7.35;;
7495;SDS011;3789;47.064;15.482;2022-08-18T04:07:40;11.35;;;7.40;;
7495;SDS011;3789;47.064;15.482;2022-08-18T04:10:10;9.18;;;8.25;;
7495;SDS011;3789;47.064;15.482;2022-08-18T04:12:45;8.90;;;8.00;;
7495;SDS011;3789;47.064;15.482;2022-08-18T04:15:15;9.07;;;7.82;;
7495;SDS011;3789;47.064;15.482;2022-08-18T04:17:44;8.85;;;7.50;;
7495;SDS011;3789;47.064;15.482;2022-08-18T04:20:33;8.50;;;7.40;;
7495;SDS011;3789;47.064;15.482;2022-08-18T04:23:03;11.52;;;7.90;;
7495;SDS011;3789;47.064;15.482;2022-08-18T04:25:33;9.15;;;7.78;;
7495;SDS011;3789;47.064;15.482;2022-08-18T04:28:02;9.80;;;8.00;;
7495;SDS011;3789;47.064;15.482;2022-08-18T04:30:31;10.18;;;8.48;;
7495;SDS011;3789;47.064;15.482;2022-08-18T04:32:59;8.65;;;7.45;;
7495;SDS011;3789;47.064;15.482;2022-08-18T04:35:29;9.00;;;7.72;;
7495;SDS011;3789;47.064;15.482;2022-08-18T04:37:57;8.75;;;7.55;;
7495;SDS011;3789;47.064;15.482;2022-08-18T04:40:27;8.77;;;7.88;;
7495;SDS011;3789;47.064;15.482;2022-08-18T04:42:58;8.63;;;7.50;;
7495;SDS011;3789;47.064;15.482;2022-08-18T04:45:29;13.88;;;8.82;;
7495;SDS011;3789;47.064;15.482;2022-08-18T04:48:00;8.02;;;7.25;;
7495;SDS011;3789;47.064;15.482;2022-08-18T04:50:32;9.25;;;7.13;;
7495;SDS011;3789;47.064;15.482;2022-08-18T04:53:03;8.60;;;7.70;;
7495;SDS011;3789;47.064;15.482;2022-08-18T04:55:51;8.00;;;7.20;;
7495;SDS011;3789;47.064;15.482;2022-08-18T04:58:22;8.05;;;7.30;;
7495;SDS011;3789;47.064;15.482;2022-08-18T05:01:00;8.52;;;6.95;;
7495;SDS011;3789;47.064;15.482;2022-08-18T05:03:28;8.38;;;7.43;;
7495;SDS011;3789;47.064;15.482;2022-08-18T05:06:03;9.18;;;6.72;;
7495;SDS011;3789;47.064;15.482;2022-08-18T05:08:34;8.38;;;7.50;;
7495;SDS011;3789;47.064;15.482;2022-08-18T05:11:02;7.80;;;7.00;;
7495;SDS011;3789;47.064;15.482;2022-08-18T05:13:32;10.27;;;7.35;;
7495;SDS011;3789;47.064;15.482;2022-08-18T05:16:05;8.30;;;7.43;;
7495;SDS011;3789;47.064;15.482;2022-08-18T05:18:39;9.60;;;7.10;;
7495;SDS011;3789;47.064;15.482;2022-08-18T05:21:10;7.38;;;6.68;;
7495;SDS011;3789;47.064;15.482;2022-08-18T05:23:44;7.45;;;6.18;;
7495;SDS011;3789;47.064;15.482;2022-08-18T05:26:14;7.10;;;6.40;;
7495;SDS011;3789;47.064;15.482;2022-08-18T05:28:47;7.00;;;6.35;;
7495;SDS011;3789;47.064;15.482;2022-08-18T05:31:25;7.70;;;6.93;;
7495;SDS011;3789;47.064;15.482;2022-08-18T05:33:58;8.27;;;6.80;;
7495;SDS011;3789;47.064;15.482;2022-08-18T05:42:37;8.07;;;6.85;;
7495;SDS011;3789;47.064;15.482;2022-08-18T05:45:15;7.38;;;6.70;;
7495;SDS011;3789;47.064;15.482;2022-08-18T05:47:45;8.63;;;6.90;;
7495;SDS011;3789;47.064;15.482;2022-08-18T05:50:18;8.70;;;6.03;;
7495;SDS011;3789;47.064;15.482;2022-08-18T05:53:00;6.32;;;5.78;;
7495;SDS011;3789;47.064;15.482;2022-08-18T05:55:47;8.00;;;6.70;;
7495;SDS011;3789;47.064;15.482;2022-08-18T05:58:52;7.60;;;6.90;;
7495;SDS011;3789;47.064;15.482;2022-08-18T06:01:22;7.63;;;6.93;;
7495;SDS011;3789;47.064;15.482;2022-08-18T06:04:05;8.05;;;6.80;;
7495;SDS011;3789;47.064;15.482;2022-08-18T06:06:47;9.27;;;7.35;;
7495;SDS011;3789;47.064;15.482;2022-08-18T06:09:23;8.00;;;7.20;;
7495;SDS011;3789;47.064;15.482;2022-08-18T06:12:07;7.70;;;6.95;;
7495;SDS011;3789;47.064;15.482;2022-08-18T06:14:43;7.90;;;7.13;;
7495;SDS011;3789;47.064;15.482;2022-08-18T06:17:36;7.70;;;6.88;;
7495;SDS011;3789;47.064;15.482;2022-08-18T06:20:14;9.15;;;7.05;;
7495;SDS011;3789;47.064;15.482;2022-08-18T06:26:20;8.23;;;7.22;;
7495;SDS011;3789;47.064;15.482;2022-08-18T06:37:33;8.27;;;7.07;;
7495;SDS011;3789;47.064;15.482;2022-08-18T06:40:36;8.25;;;7.15;;
7495;SDS011;3789;47.064;15.482;2022-08-18T06:43:06;8.07;;;7.00;;
7495;SDS011;3789;47.064;15.482;2022-08-18T06:45:47;6.63;;;6.05;;
7495;SDS011;3789;47.064;15.482;2022-08-18T06:48:31;7.50;;;6.72;;
7495;SDS011;3789;47.064;15.482;2022-08-18T06:51:18;8.45;;;6.35;;
7495;SDS011;3789;47.064;15.482;2022-08-18T07:05:05;7.15;;;6.40;;
7495;SDS011;3789;47.064;15.482;2022-08-18T07:10:47;7.20;;;5.82;;
7495;SDS011;3789;47.064;15.482;2022-08-18T07:13:22;9.75;;;6.50;;
7495;SDS011;3789;47.064;15.482;2022-08-18T07:16:15;7.68;;;6.80;;
7495;SDS011;3789;47.064;15.482;2022-08-18T07:19:16;7.75;;;6.53;;
7495;SDS011;3789;47.064;15.482;2022-08-18T07:22:01;8.93;;;7.32;;
7495;SDS011;3789;47.064;15.482;2022-08-18T07:24:44;8.32;;;6.50;;
7495;SDS011;3789;47.064;15.482;2022-08-18T07:27:18;6.90;;;6.20;;
7495;SDS011;3789;47.064;15.482;2022-08-18T07:30:36;6.70;;;6.07;;
7495;SDS011;3789;47.064;15.482;2022-08-18T07:33:26;7.28;;;6.30;;
7495;SDS011;3789;47.064;15.482;2022-08-18T07:35:59;6.93;;;6.20;;
7495;SDS011;3789;47.064;15.482;2022-08-18T07:38:59;5.40;;;5.00;;
7495;SDS011;3789;47.064;15.482;2022-08-18T07:41:33;8.45;;;5.93;;
7495;SDS011;3789;47.064;15.482;2022-08-18T07:44:15;6.47;;;5.88;;
7495;SDS011;3789;47.064;15.482;2022-08-18T07:46:54;6.65;;;6.03;;
7495;SDS011;3789;47.064;15.482;2022-08-18T07:49:31;7.05;;;5.40;;
7495;SDS011;3789;47.064;15.482;2022-08-18T07:52:19;5.70;;;5.10;;
7495;SDS011;3789;47.064;15.482;2022-08-18T07:55:32;7.03;;;6.18;;
7495;SDS011;3789;47.064;15.482;2022-08-18T08:01:15;7.03;;;4.80;;
7495;SDS011;3789;47.064;15.482;2022-08-18T08:07:18;7.28;;;5.57;;
7495;SDS011;3789;47.064;15.482;2022-08-18T08:10:10;6.32;;;4.95;;
7495;SDS011;3789;47.064;15.482;2022-08-18T08:16:25;8.23;;;5.22;;
7495;SDS011;3789;47.064;15.482;2022-08-18T08:22:11;6.55;;;4.47;;
7495;SDS011;3789;47.064;15.482;2022-08-18T08:25:07;7.63;;;5.15;;
7495;SDS011;3789;47.064;15.482;2022-08-18T08:31:43;7.50;;;4.30;;
7495;SDS011;3789;47.064;15.482;2022-08-18T08:41:00;5.55;;;4.05;;
7495;SDS011;3789;47.064;15.482;2022-08-18T08:43:48;5.90;;;4.82;;
7495;SDS011;3789;47.064;15.482;2022-08-18T08:49:47;8.32;;;5.00;;
7495;SDS011;3789;47.064;15.482;2022-08-18T08:52:33;5.88;;;5.00;;
7495;SDS011;3789;47.064;15.482;2022-08-18T08:55:23;9.38;;;4.80;;
7495;SDS011;3789;47.064;15.482;2022-08-18T08:57:57;8.93;;;4.60;;
7495;SDS011;3789;47.064;15.482;2022-08-18T09:00:44;5.68;;;4.63;;
7495;SDS011;3789;47.064;15.482;2022-08-18T09:24:54;5.63;;;4.55;;
7495;SDS011;3789;47.064;15.482;2022-08-18T09:27:42;5.70;;;4.20;;
7495;SDS011;3789;47.064;15.482;2022-08-18T09:34:30;4.97;;;4.00;;
7495;SDS011;3789;47.064;15.482;2022-08-18T09:43:30;9.75;;;3.80;;
7495;SDS011;3789;47.064;15.482;2022-08-18T09:51:57;6.82;;;3.78;;
7495;SDS011;3789;47.064;15.482;2022-08-18T09:54:31;5.15;;;3.63;;
7495;SDS011;3789;47.064;15.482;2022-08-18T09:57:17;7.40;;;3.33;;
7495;SDS011;3789;47.064;15.482;2022-08-18T10:14:12;5.22;;;3.28;;
7495;SDS011;3789;47.064;15.482;2022-08-18T10:22:53;6.82;;;3.85;;
7495;SDS011;3789;47.064;15.482;2022-08-18T10:25:35;6.78;;;3.45;;
7495;SDS011;3789;47.064;15.482;2022-08-18T10:43:09;5.15;;;3.90;;
7495;SDS011;3789;47.064;15.482;2022-08-18T10:46:30;5.00;;;3.95;;
7495;SDS011;3789;47.064;15.482;2022-08-18T10:49:16;6.00;;;3.70;;
7495;SDS011;3789;47.064;15.482;2022-08-18T11:07:14;8.77;;;3.90;;
7495;SDS011;3789;47.064;15.482;2022-08-18T11:10:13;9.27;;;4.07;;
7495;SDS011;3789;47.064;15.482;2022-08-18T11:18:39;6.57;;;3.40;;
7495;SDS011;3789;47.064;15.482;2022-08-18T11:24:31;6.93;;;2.97;;
7495;SDS011;3789;47.064;15.482;2022-08-18T11:27:17;7.25;;;3.53;;
7495;SDS011;3789;47.064;15.482;2022-08-18T11:29:50;8.38;;;3.97;;
7495;SDS011;3789;47.064;15.482;2022-08-18T11:32:27;13.45;;;3.85;;
7495;SDS011;3789;47.064;15.482;2022-08-18T11:35:26;7.20;;;3.25;;
7495;SDS011;3789;47.064;15.482;2022-08-18T11:38:04;7.38;;;3.67;;
7495;SDS011;3789;47.064;15.482;2022-08-18T11:44:18;8.00;;;3.80;;
7495;SDS011;3789;47.064;15.482;2022-08-18T11:47:13;11.65;;;4.10;;
7495;SDS011;3789;47.064;15.482;2022-08-18T11:50:08;8.63;;;3.60;;
7495;SDS011;3789;47.064;15.482;2022-08-18T11:52:47;9.13;;;3.67;;
7495;SDS011;3789;47.064;15.482;2022-08-18T11:55:31;7.18;;;4.03;;
7495;SDS011;3789;47.064;15.482;2022-08-18T11:58:04;8.25;;;3.70;;
7495;SDS011;3789;47.064;15.482;2022-08-18T12:03:38;7.72;;;3.60;;
7495;SDS011;3789;47.064;15.482;2022-08-18T12:06:18;6.88;;;3.70;;
7495;SDS011;3789;47.064;15.482;2022-08-18T12:11:35;12.15;;;3.60;;
7495;SDS011;3789;47.064;15.482;2022-08-18T12:14:20;5.10;;;3.28;;
7495;SDS011;3789;47.064;15.482;2022-08-18T12:17:06;9.73;;;3.42;;
7495;SDS011;3789;47.064;15.482;2022-08-18T12:19:37;6.80;;;3.28;;
7495;SDS011;3789;47.064;15.482;2022-08-18T12:22:17;7.18;;;3.55;;
7495;SDS011;3789;47.064;15.482;2022-08-18T12:24:50;8.77;;;3.60;;
7495;SDS011;3789;47.064;15.482;2022-08-18T12:27:26;5.03;;;3.78;;
7495;SDS011;3789;47.064;15.482;2022-08-18T12:29:59;8.85;;;4.22;;
7495;SDS011;3789;47.064;15.482;2022-08-18T12:32:42;7.85;;;3.60;;
7495;SDS011;3789;47.064;15.482;2022-08-18T12:35:32;8.93;;;4.25;;
7495;SDS011;3789;47.064;15.482;2022-08-18T12:38:00;7.35;;;3.58;;
7495;SDS011;3789;47.064;15.482;2022-08-18T12:40:40;9.98;;;4.65;;
7495;SDS011;3789;47.064;15.482;2022-08-18T12:43:09;8.93;;;3.75;;
7495;SDS011;3789;47.064;15.482;2022-08-18T12:45:42;9.20;;;4.03;;
7495;SDS011;3789;47.064;15.482;2022-08-18T12:48:14;11.20;;;4.53;;
7495;SDS011;3789;47.064;15.482;2022-08-18T12:50:43;8.50;;;4.82;;
7495;SDS011;3789;47.064;15.482;2022-08-18T12:53:22;6.30;;;4.10;;
7495;SDS011;3789;47.064;15.482;2022-08-18T12:56:05;9.75;;;4.38;;
7495;SDS011;3789;47.064;15.482;2022-08-18T12:59:05;9.77;;;4.20;;
7495;SDS011;3789;47.064;15.482;2022-08-18T13:01:38;7.28;;;4.47;;
7495;SDS011;3789;47.064;15.482;2022-08-18T13:04:25;10.35;;;4.50;;
7495;SDS011;3789;47.064;15.482;2022-08-18T13:06:57;8.48;;;4.32;;
7495;SDS011;3789;47.064;15.482;2022-08-18T13:09:41;10.13;;;4.30;;
7495;SDS011;3789;47.064;15.482;2022-08-18T13:12:21;10.07;;;4.55;;
7495;SDS011;3789;47.064;15.482;2022-08-18T13:14:54;10.30;;;4.75;;
7495;SDS011;3789;47.064;15.482;2022-08-18T13:17:33;8.98;;;4.85;;
7495;SDS011;3789;47.064;15.482;2022-08-18T13:20:12;12.90;;;4.40;;
7495;SDS011;3789;47.064;15.482;2022-08-18T13:22:47;6.68;;;4.85;;
7495;SDS011;3789;47.064;15.482;2022-08-18T13:25:19;9.85;;;4.40;;
7495;SDS011;3789;47.064;15.482;2022-08-18T13:28:07;6.45;;;4.72;;
7495;SDS011;3789;47.064;15.482;2022-08-18T13:30:44;10.88;;;5.20;;
7495;SDS011;3789;47.064;15.482;2022-08-18T13:33:24;9.75;;;4.60;;
7495;SDS011;3789;47.064;15.482;2022-08-18T13:36:22;9.98;;;4.57;;
7495;SDS011;3789;47.064;15.482;2022-08-18T13:38:55;9.80;;;4.18;;
7495;SDS011;3789;47.064;15.482;2022-08-18T13:41:28;11.63;;;4.55;;
7495;SDS011;3789;47.064;15.482;2022-08-18T13:43:59;12.75;;;5.00;;
7495;SDS011;3789;47.064;15.482;2022-08-18T13:46:29;8.38;;;3.97;;
7495;SDS011;3789;47.064;15.482;2022-08-18T13:48:58;12.43;;;5.00;;
7495;SDS011;3789;47.064;15.482;2022-08-18T13:51:30;11.00;;;4.60;;
7495;SDS011;3789;47.064;15.482;2022-08-18T13:53:58;12.32;;;4.60;;
7495;SDS011;3789;47.064;15.482;2022-08-18T13:56:49;12.02;;;4.60;;
7495;SDS011;3789;47.064;15.482;2022-08-18T13:59:19;10.15;;;5.75;;
7495;SDS011;3789;47.064;15.482;2022-08-18T14:01:50;9.98;;;4.70;;
7495;SDS011;3789;47.064;15.482;2022-08-18T14:04:20;9.93;;;4.32;;
7495;SDS011;3789;47.064;15.482;2022-08-18T14:06:55;15.18;;;5.05;;
7495;SDS011;3789;47.064;15.482;2022-08-18T14:09:38;10.95;;;4.47;;
7495;SDS011;3789;47.064;15.482;2022-08-18T14:12:29;15.18;;;3.67;;
7495;SDS011;3789;47.064;15.482;2022-08-18T14:15:00;20.73;;;3.47;;
7495;SDS011;3789;47.064;15.482;2022-08-18T14:17:27;28.23;;;4.00;;
7495;SDS011;3789;47.064;15.482;2022-08-18T14:19:57;10.02;;;2.95;;
7495;SDS011;3789;47.064;15.482;2022-08-18T14:22:50;6.35;;;2.10;;
7495;SDS011;3789;47.064;15.482;2022-08-18T14:25:39;4.78;;;1.85;;
7495;SDS011;3789;47.064;15.482;2022-08-18T14:28:30;5.78;;;2.17;;
7495;SDS011;3789;47.064;15.482;2022-08-18T14:31:13;3.65;;;2.00;;
7495;SDS011;3789;47.064;15.482;2022-08-18T14:33:49;4.50;;;1.70;;
7495;SDS011;3789;47.064;15.482;2022-08-18T14:36:21;2.58;;;1.60;;
7495;SDS011;3789;47.064;15.482;2022-08-18T14:38:57;4.20;;;1.48;;
7495;SDS011;3789;47.064;15.482;2022-08-18T14:41:29;5.85;;;1.58;;
7495;SDS011;3789;47.064;15.482;2022-08-18T14:43:59;4.75;;;1.40;;
7495;SDS011;3789;47.064;15.482;2022-08-18T14:46:41;4.25;;;1.63;;
7495;SDS011;3789;47.064;15.482;2022-08-18T14:49:21;5.05;;;2.03;;
7495;SDS011;3789;47.064;15.482;2022-08-18T14:51:57;6.13;;;1.80;;
7495;SDS011;3789;47.064;15.482;2022-08-18T14:54:25;7.38;;;1.83;;
7495;SDS011;3789;47.064;15.482;2022-08-18T14:56:57;3.33;;;1.65;;
7495;SDS011;3789;47.064;15.482;2022-08-18T14:59:35;5.80;;;1.90;;
7495;SDS011;3789;47.064;15.482;2022-08-18T15:02:07;4.55;;;1.63;;
7495;SDS011;3789;47.064;15.482;2022-08-18T15:04:39;5.13;;;1.90;;
7495;SDS011;3789;47.064;15.482;2022-08-18T15:07:25;4.82;;;2.20;;
7495;SDS011;3789;47.064;15.482;2022-08-18T15:09:54;9.23;;;2.33;;
7495;SDS011;3789;47.064;15.482;2022-08-18T15:12:41;2.78;;;1.98;;
7495;SDS011;3789;47.064;15.482;2022-08-18T15:15:11;3.45;;;1.70;;
7495;SDS011;3789;47.064;15.482;2022-08-18T15:17:50;3.42;;;1.75;;
7495;SDS011;3789;47.064;15.482;2022-08-18T15:20:21;2.15;;;1.50;;
7495;SDS011;3789;47.064;15.482;2022-08-18T15:22:57;8.68;;;1.60;;
7495;SDS011;3789;47.064;15.482;2022-08-18T15:25:54;3.65;;;1.58;;
7495;SDS011;3789;47.064;15.482;2022-08-18T15:28:26;6.60;;;1.95;;
7495;SDS011;3789;47.064;15.482;2022-08-18T15:31:07;7.22;;;2.00;;
7495;SDS011;3789;47.064;15.482;2022-08-18T15:33:44;5.05;;;2.13;;
7495;SDS011;3789;47.064;15.482;2022-08-18T15:36:17;5.57;;;1.75;;
7495;SDS011;3789;47.064;15.482;2022-08-18T15:38:56;4.43;;;1.83;;
7495;SDS011;3789;47.064;15.482;2022-08-18T15:41:37;6.35;;;1.85;;
7495;SDS011;3789;47.064;15.482;2022-08-18T15:44:12;6.70;;;2.53;;
7495;SDS011;3789;47.064;15.482;2022-08-18T15:46:40;6.68;;;2.22;;
7495;SDS011;3789;47.064;15.482;2022-08-18T15:49:19;7.63;;;2.33;;
7495;SDS011;3789;47.064;15.482;2022-08-18T15:51:48;6.32;;;2.17;;
7495;SDS011;3789;47.064;15.482;2022-08-18T15:54:19;4.32;;;1.98;;
7495;SDS011;3789;47.064;15.482;2022-08-18T15:56:52;5.35;;;2.03;;
7495;SDS011;3789;47.064;15.482;2022-08-18T15:59:26;5.07;;;1.98;;
7495;SDS011;3789;47.064;15.482;2022-08-18T16:02:06;6.43;;;2.50;;
7495;SDS011;3789;47.064;15.482;2022-08-18T16:04:43;6.97;;;2.00;;
7495;SDS011;3789;47.064;15.482;2022-08-18T16:07:20;4.50;;;1.75;;
7495;SDS011;3789;47.064;15.482;2022-08-18T16:10:08;6.28;;;2.38;;
7495;SDS011;3789;47.064;15.482;2022-08-18T16:12:47;5.30;;;2.50;;
7495;SDS011;3789;47.064;15.482;2022-08-18T16:15:20;5.07;;;2.47;;
7495;SDS011;3789;47.064;15.482;2022-08-18T16:17:54;5.45;;;2.70;;
7495;SDS011;3789;47.064;15.482;2022-08-18T16:20:23;8.63;;;2.75;;
7495;SDS011;3789;47.064;15.482;2022-08-18T16:23:00;7.47;;;2.45;;
7495;SDS011;3789;47.064;15.482;2022-08-18T16:25:32;8.20;;;2.08;;
7495;SDS011;3789;47.064;15.482;2022-08-18T16:28:06;7.35;;;2.50;;
7495;SDS011;3789;47.064;15.482;2022-08-18T16:30:34;5.72;;;2.30;;
7495;SDS011;3789;47.064;15.482;2022-08-18T16:33:04;6.78;;;1.92;;
7495;SDS011;3789;47.064;15.482;2022-08-18T16:35:32;10.45;;;2.97;;
7495;SDS011;3789;47.064;15.482;2022-08-18T16:38:05;8.25;;;2.40;;
7495;SDS011;3789;47.064;15.482;2022-08-18T16:40:37;7.85;;;2.60;;
7495;SDS011;3789;47.064;15.482;2022-08-18T16:43:16;6.00;;;2.03;;
7495;SDS011;3789;47.064;15.482;2022-08-18T16:45:52;8.98;;;2.33;;
7495;SDS011;3789;47.064;15.482;2022-08-18T16:48:21;4.93;;;2.60;;
7495;SDS011;3789;47.064;15.482;2022-08-18T16:50:55;7.57;;;2.03;;
7495;SDS011;3789;47.064;15.482;2022-08-18T16:53:23;7.25;;;2.38;;
7495;SDS011;3789;47.064;15.482;2022-08-18T16:56:11;5.68;;;2.22;;
7495;SDS011;3789;47.064;15.482;2022-08-18T16:58:43;3.95;;;2.10;;
7495;SDS011;3789;47.064;15.482;2022-08-18T17:01:35;3.83;;;1.92;;
7495;SDS011;3789;47.064;15.482;2022-08-18T17:04:27;7.28;;;2.63;;
7495;SDS011;3789;47.064;15.482;2022-08-18T17:07:02;6.80;;;1.98;;
7495;SDS011;3789;47.064;15.482;2022-08-18T17:09:40;3.55;;;1.90;;
7495;SDS011;3789;47.064;15.482;2022-08-18T17:12:09;4.85;;;2.22;;
7495;SDS011;3789;47.064;15.482;2022-08-18T17:14:38;5.43;;;2.45;;
7495;SDS011;3789;47.064;15.482;2022-08-18T17:17:06;6.82;;;2.25;;
7495;SDS011;3789;47.064;15.482;2022-08-18T17:19:36;3.92;;;2.30;;
7495;SDS011;3789;47.064;15.482;2022-08-18T17:22:06;5.05;;;2.55;;
7495;SDS011;3789;47.064;15.482;2022-08-18T17:24:42;3.78;;;1.88;;
7495;SDS011;3789;47.064;15.482;2022-08-18T17:27:20;6.07;;;2.40;;
7495;SDS011;3789;47.064;15.482;2022-08-18T17:30:07;3.97;;;2.00;;
7495;SDS011;3789;47.064;15.482;2022-08-18T17:32:52;5.80;;;2.67;;
7495;SDS011;3789;47.064;15.482;2022-08-18T17:35:34;5.53;;;2.00;;
7495;SDS011;3789;47.064;15.482;2022-08-18T17:38:08;4.53;;;2.10;;
7495;SDS011;3789;47.064;15.482;2022-08-18T17:41:03;6.07;;;2.50;;
7495;SDS011;3789;47.064;15.482;2022-08-18T17:43:40;4.57;;;2.10;;
7495;SDS011;3789;47.064;15.482;2022-08-18T17:46:32;4.40;;;1.98;;
7495;SDS011;3789;47.064;15.482;2022-08-18T17:49:28;10.10;;;2.85;;
7495;SDS011;3789;47.064;15.482;2022-08-18T17:52:42;4.07;;;2.17;;
7495;SDS011;3789;47.064;15.482;2022-08-18T17:55:28;4.75;;;2.50;;
7495;SDS011;3789;47.064;15.482;2022-08-18T18:01:07;5.75;;;2.45;;
7495;SDS011;3789;47.064;15.482;2022-08-18T18:03:42;5.07;;;2.22;;
7495;SDS011;3789;47.064;15.482;2022-08-18T18:06:25;6.00;;;2.42;;
7495;SDS011;3789;47.064;15.482;2022-08-18T18:09:27;5.22;;;2.08;;
7495;SDS011;3789;47.064;15.482;2022-08-18T18:11:58;5.22;;;2.10;;
7495;SDS011;3789;47.064;15.482;2022-08-18T18:14:56;4.20;;;2.00;;
7495;SDS011;3789;47.064;15.482;2022-08-18T18:17:39;6.38;;;2.30;;
7495;SDS011;3789;47.064;15.482;2022-08-18T18:23:18;6.30;;;2.13;;
7495;SDS011;3789;47.064;15.482;2022-08-18T18:25:48;5.80;;;2.22;;
7495;SDS011;3789;47.064;15.482;2022-08-18T18:28:29;5.75;;;2.22;;
7495;SDS011;3789;47.064;15.482;2022-08-18T18:31:22;4.50;;;2.30;;
7495;SDS011;3789;47.064;15.482;2022-08-18T18:33:55;6.72;;;2.05;;
7495;SDS011;3789;47.064;15.482;2022-08-18T18:36:31;7.93;;;2.42;;
7495;SDS011;3789;47.064;15.482;2022-08-18T18:39:20;4.18;;;2.05;;
7495;SDS011;3789;47.064;15.482;2022-08-18T18:42:19;3.30;;;2.15;;
7495;SDS011;3789;47.064;15.482;2022-08-18T18:45:01;6.00;;;2.40;;
7495;SDS011;3789;47.064;15.482;2022-08-18T18:53:48;7.35;;;2.22;;
7495;SDS011;3789;47.064;15.482;2022-08-18T18:56:39;5.07;;;2.50;;
7495;SDS011;3789;47.064;15.482;2022-08-18T19:09:22;3.97;;;2.17;;
7495;SDS011;3789;47.064;15.482;2022-08-18T19:12:12;3.55;;;2.33;;
7495;SDS011;3789;47.064;15.482;2022-08-18T19:14:49;5.85;;;2.25;;
7495;SDS011;3789;47.064;15.482;2022-08-18T19:17:44;4.40;;;2.38;;